world map with HDM marked

HDM - Airport

This information may not be accurate or current and is not valid for navigation or flight planning. No warranty of fitness for any purpose is made or implied.

flag of Iran

Donate via PayPal

Additional information is available on the NEW Great Circle Mapper

Location
City:  Hamadan, Hamadan, Iran
ICAO / IATA:OIHH / HDM

Details
Type:Airport (Aerodrome, Airfield)
Latitude:34°52'09"N (34.869167)
Longitude:48°33'09"E (48.552500)
Datum:WGS 1984
Elevation:5755 ft (1754 m)
Runways:1
Longest:10611 × 148 ft (3234 × 45 m)

Time
Timezone:UTC+3:30 (DST+6:30)
Local Time:

Weather
METAR:OIHH  041352Z 29006KT 9999 SCT040 00/M06 Q1025
TAF:OIHH  (expired)

Related Locations
Nearby:
Farthest:GMR: 11593 mi / 18657 km
Mangareva [Totegegie], Gambier Islands, PF

Find:

   beyond  
but within

Other Information
Maps:
Sources:

  


 


Great Circle Mapper   Great Circle Mapper
Great Circle Mapper FAQ   Great Circle Mapper FAQ
  Karl's Home Page
KLSē   KLSē Home
   GC on Facebook
Airlines of the World   Airlines of the World
Donate via PayPal


Copyright © 2004-2019, Karl L. Swartz. All rights reserved.
All trademarks mentioned herein belong to their respective owners.

Please see credits for attribution and copyright information.

Karl Swartz <karl@kls2.com>
  Powered by FreeBSD
Valid HTML 4.01!
Labeled with ICRA
hCard Microformat
Geo Microformat